sensor_id;sensor_type;location;lat;lon;timestamp;temperature;humidity
69543;SHT31;56762;49.494;11.768;2022-09-01T00:01:52;16.14;86.79
69543;SHT31;56762;49.494;11.768;2022-09-01T00:04:22;16.13;86.76
69543;SHT31;56762;49.494;11.768;2022-09-01T00:06:53;16.13;86.67
69543;SHT31;56762;49.494;11.768;2022-09-01T00:09:22;16.13;86.43
69543;SHT31;56762;49.494;11.768;2022-09-01T00:11:53;16.12;86.64
69543;SHT31;56762;49.494;11.768;2022-09-01T00:14:24;16.14;86.40
69543;SHT31;56762;49.494;11.768;2022-09-01T00:16:56;16.09;86.07
69543;SHT31;56762;49.494;11.768;2022-09-01T00:19:25;16.08;85.98
69543;SHT31;56762;49.494;11.768;2022-09-01T00:21:53;16.10;86.35
69543;SHT31;56762;49.494;11.768;2022-09-01T00:24:22;16.08;86.61
69543;SHT31;56762;49.494;11.768;2022-09-01T00:26:53;16.08;87.13
69543;SHT31;56762;49.494;11.768;2022-09-01T00:29:22;16.08;87.35
69543;SHT31;56762;49.494;11.768;2022-09-01T00:31:51;16.06;86.71
69543;SHT31;56762;49.494;11.768;2022-09-01T00:34:20;16.06;86.60
69543;SHT31;56762;49.494;11.768;2022-09-01T00:36:50;16.08;86.45
69543;SHT31;56762;49.494;11.768;2022-09-01T00:39:18;16.08;86.51
69543;SHT31;56762;49.494;11.768;2022-09-01T00:41:48;16.08;86.44
69543;SHT31;56762;49.494;11.768;2022-09-01T00:44:19;16.09;86.73
69543;SHT31;56762;49.494;11.768;2022-09-01T00:46:50;16.09;86.78
69543;SHT31;56762;49.494;11.768;2022-09-01T00:49:26;16.08;86.26
69543;SHT31;56762;49.494;11.768;2022-09-01T00:51:59;16.03;85.60
69543;SHT31;56762;49.494;11.768;2022-09-01T00:54:31;16.05;86.61
69543;SHT31;56762;49.494;11.768;2022-09-01T00:57:01;16.06;86.35
69543;SHT31;56762;49.494;11.768;2022-09-01T00:59:30;16.02;86.40
69543;SHT31;56762;49.494;11.768;2022-09-01T01:01:59;15.99;86.42
69543;SHT31;56762;49.494;11.768;2022-09-01T01:04:26;16.02;86.21
69543;SHT31;56762;49.494;11.768;2022-09-01T01:06:57;16.00;85.74
69543;SHT31;56762;49.494;11.768;2022-09-01T01:09:30;15.99;86.13
69543;SHT31;56762;49.494;11.768;2022-09-01T01:12:01;15.98;86.04
69543;SHT31;56762;49.494;11.768;2022-09-01T01:14:34;15.96;85.84
69543;SHT31;56762;49.494;11.768;2022-09-01T01:17:02;15.92;85.93
69543;SHT31;56762;49.494;11.768;2022-09-01T01:19:39;15.92;86.34
69543;SHT31;56762;49.494;11.768;2022-09-01T01:22:43;15.95;86.05
69543;SHT31;56762;49.494;11.768;2022-09-01T01:29:11;15.93;85.76
69543;SHT31;56762;49.494;11.768;2022-09-01T01:31:40;15.93;86.05
69543;SHT31;56762;49.494;11.768;2022-09-01T01:34:08;15.95;86.01
69543;SHT31;56762;49.494;11.768;2022-09-01T01:36:37;15.96;86.19
69543;SHT31;56762;49.494;11.768;2022-09-01T01:39:07;15.93;86.22
69543;SHT31;56762;49.494;11.768;2022-09-01T01:41:37;15.89;85.94
69543;SHT31;56762;49.494;11.768;2022-09-01T01:44:07;15.88;85.83
69543;SHT31;56762;49.494;11.768;2022-09-01T01:46:41;15.86;85.99
69543;SHT31;56762;49.494;11.768;2022-09-01T01:49:10;15.88;86.44
69543;SHT31;56762;49.494;11.768;2022-09-01T01:51:38;15.86;86.27
69543;SHT31;56762;49.494;11.768;2022-09-01T01:54:07;15.83;86.34
69543;SHT31;56762;49.494;11.768;2022-09-01T01:56:34;15.83;86.83
69543;SHT31;56762;49.494;11.768;2022-09-01T01:59:05;15.82;87.18
69543;SHT31;56762;49.494;11.768;2022-09-01T02:01:35;15.79;86.97
69543;SHT31;56762;49.494;11.768;2022-09-01T02:04:04;15.77;86.19
69543;SHT31;56762;49.494;11.768;2022-09-01T02:06:33;15.75;86.31
69543;SHT31;56762;49.494;11.768;2022-09-01T02:09:01;15.77;86.76
69543;SHT31;56762;49.494;11.768;2022-09-01T02:11:30;15.72;86.26
69543;SHT31;56762;49.494;11.768;2022-09-01T02:13:59;15.73;86.35
69543;SHT31;56762;49.494;11.768;2022-09-01T02:16:29;15.70;86.02
69543;SHT31;56762;49.494;11.768;2022-09-01T02:19:00;15.72;86.47
69543;SHT31;56762;49.494;11.768;2022-09-01T02:21:28;15.70;85.89
69543;SHT31;56762;49.494;11.768;2022-09-01T02:23:59;15.69;84.95
69543;SHT31;56762;49.494;11.768;2022-09-01T02:26:30;15.66;84.60
69543;SHT31;56762;49.494;11.768;2022-09-01T02:28:59;15.59;84.28
69543;SHT31;56762;49.494;11.768;2022-09-01T02:31:30;15.59;85.00
69543;SHT31;56762;49.494;11.768;2022-09-01T02:34:02;15.61;84.92
69543;SHT31;56762;49.494;11.768;2022-09-01T02:36:30;15.61;85.14
69543;SHT31;56762;49.494;11.768;2022-09-01T02:39:00;15.61;85.54
69543;SHT31;56762;49.494;11.768;2022-09-01T02:41:29;15.61;84.71
69543;SHT31;56762;49.494;11.768;2022-09-01T02:44:00;15.59;84.51
69543;SHT31;56762;49.494;11.768;2022-09-01T02:46:29;15.58;83.94
69543;SHT31;56762;49.494;11.768;2022-09-01T02:48:57;15.57;84.21
69543;SHT31;56762;49.494;11.768;2022-09-01T02:51:27;15.51;84.08
69543;SHT31;56762;49.494;11.768;2022-09-01T02:53:55;15.48;84.37
69543;SHT31;56762;49.494;11.768;2022-09-01T02:56:24;15.47;84.43
69543;SHT31;56762;49.494;11.768;2022-09-01T02:58:54;15.47;84.17
69543;SHT31;56762;49.494;11.768;2022-09-01T03:01:24;15.45;83.82
69543;SHT31;56762;49.494;11.768;2022-09-01T03:03:56;15.41;84.47
69543;SHT31;56762;49.494;11.768;2022-09-01T03:06:24;15.37;84.34
69543;SHT31;56762;49.494;11.768;2022-09-01T03:08:56;15.32;84.57
69543;SHT31;56762;49.494;11.768;2022-09-01T03:11:27;15.28;85.07
69543;SHT31;56762;49.494;11.768;2022-09-01T03:13:55;15.24;84.66
69543;SHT31;56762;49.494;11.768;2022-09-01T03:16:23;15.20;84.54
69543;SHT31;56762;49.494;11.768;2022-09-01T03:18:51;15.16;84.26
69543;SHT31;56762;49.494;11.768;2022-09-01T03:21:19;15.10;84.19
69543;SHT31;56762;49.494;11.768;2022-09-01T03:23:50;15.06;84.32
69543;SHT31;56762;49.494;11.768;2022-09-01T03:26:20;15.06;84.46
69543;SHT31;56762;49.494;11.768;2022-09-01T03:28:48;15.04;84.10
69543;SHT31;56762;49.494;11.768;2022-09-01T03:31:17;15.00;84.34
69543;SHT31;56762;49.494;11.768;2022-09-01T03:33:45;14.96;84.56
69543;SHT31;56762;49.494;11.768;2022-09-01T03:36:14;14.87;84.68
69543;SHT31;56762;49.494;11.768;2022-09-01T03:38:46;14.87;84.76
69543;SHT31;56762;49.494;11.768;2022-09-01T03:41:16;14.81;84.79
69543;SHT31;56762;49.494;11.768;2022-09-01T03:43:45;14.77;84.46
69543;SHT31;56762;49.494;11.768;2022-09-01T03:46:14;14.75;84.04
69543;SHT31;56762;49.494;11.768;2022-09-01T03:48:48;14.70;84.35
69543;SHT31;56762;49.494;11.768;2022-09-01T03:51:18;14.73;84.72
69543;SHT31;56762;49.494;11.768;2022-09-01T03:53:46;14.67;84.56
69543;SHT31;56762;49.494;11.768;2022-09-01T03:56:14;14.67;84.28
69543;SHT31;56762;49.494;11.768;2022-09-01T03:58:42;14.62;84.31
69543;SHT31;56762;49.494;11.768;2022-09-01T04:01:14;14.59;84.37
69543;SHT31;56762;49.494;11.768;2022-09-01T04:03:42;14.58;85.07
69543;SHT31;56762;49.494;11.768;2022-09-01T04:06:15;14.55;84.70
69543;SHT31;56762;49.494;11.768;2022-09-01T04:08:50;14.50;83.78
69543;SHT31;56762;49.494;11.768;2022-09-01T04:11:22;14.52;83.96
69543;SHT31;56762;49.494;11.768;2022-09-01T04:13:51;14.48;84.23
69543;SHT31;56762;49.494;11.768;2022-09-01T04:16:22;14.43;84.85
69543;SHT31;56762;49.494;11.768;2022-09-01T04:19:07;14.43;84.73
69543;SHT31;56762;49.494;11.768;2022-09-01T04:21:46;14.36;84.75
69543;SHT31;56762;49.494;11.768;2022-09-01T04:24:16;14.32;84.63
69543;SHT31;56762;49.494;11.768;2022-09-01T04:26:46;14.29;84.41
69543;SHT31;56762;49.494;11.768;2022-09-01T04:29:16;14.29;84.66
69543;SHT31;56762;49.494;11.768;2022-09-01T04:31:46;14.26;84.23
69543;SHT31;56762;49.494;11.768;2022-09-01T04:34:19;14.26;84.11
69543;SHT31;56762;49.494;11.768;2022-09-01T04:36:47;14.26;83.90
69543;SHT31;56762;49.494;11.768;2022-09-01T04:39:20;14.30;83.19
69543;SHT31;56762;49.494;11.768;2022-09-01T04:41:48;14.29;83.35
69543;SHT31;56762;49.494;11.768;2022-09-01T04:44:17;14.30;83.93
69543;SHT31;56762;49.494;11.768;2022-09-01T04:46:47;14.30;83.88
69543;SHT31;56762;49.494;11.768;2022-09-01T04:49:17;14.26;84.50
69543;SHT31;56762;49.494;11.768;2022-09-01T04:51:50;14.29;83.80
69543;SHT31;56762;49.494;11.768;2022-09-01T04:54:21;14.29;84.07
69543;SHT31;56762;49.494;11.768;2022-09-01T04:56:50;14.25;83.47
69543;SHT31;56762;49.494;11.768;2022-09-01T04:59:22;14.32;83.25
69543;SHT31;56762;49.494;11.768;2022-09-01T05:01:52;14.35;83.33
69543;SHT31;56762;49.494;11.768;2022-09-01T05:04:23;14.40;83.61
69543;SHT31;56762;49.494;11.768;2022-09-01T05:06:55;14.38;83.41
69543;SHT31;56762;49.494;11.768;2022-09-01T05:13:13;14.58;83.07
69543;SHT31;56762;49.494;11.768;2022-09-01T05:15:45;14.80;83.15
69543;SHT31;56762;49.494;11.768;2022-09-01T05:18:16;14.87;82.61
69543;SHT31;56762;49.494;11.768;2022-09-01T05:20:50;14.91;82.74
69543;SHT31;56762;49.494;11.768;2022-09-01T05:23:19;14.93;81.91
69543;SHT31;56762;49.494;11.768;2022-09-01T05:25:50;14.94;81.81
69543;SHT31;56762;49.494;11.768;2022-09-01T05:28:20;14.97;81.93
69543;SHT31;56762;49.494;11.768;2022-09-01T05:30:50;14.96;81.32
69543;SHT31;56762;49.494;11.768;2022-09-01T05:33:21;15.07;80.71
69543;SHT31;56762;49.494;11.768;2022-09-01T05:35:52;15.10;81.21
69543;SHT31;56762;49.494;11.768;2022-09-01T05:38:21;15.18;81.45
69543;SHT31;56762;49.494;11.768;2022-09-01T05:40:55;15.20;80.58
69543;SHT31;56762;49.494;11.768;2022-09-01T05:43:24;15.28;80.09
69543;SHT31;56762;49.494;11.768;2022-09-01T05:45:53;15.34;80.59
69543;SHT31;56762;49.494;11.768;2022-09-01T05:48:34;15.39;79.26
69543;SHT31;56762;49.494;11.768;2022-09-01T05:51:06;15.42;79.04
69543;SHT31;56762;49.494;11.768;2022-09-01T05:53:54;15.52;78.34
69543;SHT31;56762;49.494;11.768;2022-09-01T05:56:25;15.51;78.88
69543;SHT31;56762;49.494;11.768;2022-09-01T05:58:53;15.52;78.06
69543;SHT31;56762;49.494;11.768;2022-09-01T06:01:40;15.58;78.40
69543;SHT31;56762;49.494;11.768;2022-09-01T06:04:17;15.66;76.85
69543;SHT31;56762;49.494;11.768;2022-09-01T06:06:46;15.70;77.01
69543;SHT31;56762;49.494;11.768;2022-09-01T06:09:35;15.85;76.70
69543;SHT31;56762;49.494;11.768;2022-09-01T06:12:03;15.89;76.09
69543;SHT31;56762;49.494;11.768;2022-09-01T06:14:32;15.83;75.92
69543;SHT31;56762;49.494;11.768;2022-09-01T06:17:00;15.93;76.06
69543;SHT31;56762;49.494;11.768;2022-09-01T06:19:30;15.96;75.19
69543;SHT31;56762;49.494;11.768;2022-09-01T06:22:03;15.82;76.25
69543;SHT31;56762;49.494;11.768;2022-09-01T06:24:31;15.88;76.16
69543;SHT31;56762;49.494;11.768;2022-09-01T06:26:58;15.96;74.83
69543;SHT31;56762;49.494;11.768;2022-09-01T06:29:26;16.00;75.56
69543;SHT31;56762;49.494;11.768;2022-09-01T06:31:56;16.00;75.49
69543;SHT31;56762;49.494;11.768;2022-09-01T06:34:27;16.05;75.36
69543;SHT31;56762;49.494;11.768;2022-09-01T06:36:56;16.05;75.78
69543;SHT31;56762;49.494;11.768;2022-09-01T06:39:25;16.06;76.32
69543;SHT31;56762;49.494;11.768;2022-09-01T06:41:52;16.12;74.83
69543;SHT31;56762;49.494;11.768;2022-09-01T06:44:20;16.12;75.26
69543;SHT31;56762;49.494;11.768;2022-09-01T06:46:49;16.13;76.05
69543;SHT31;56762;49.494;11.768;2022-09-01T06:49:17;16.16;75.36
69543;SHT31;56762;49.494;11.768;2022-09-01T06:51:46;16.19;76.21
69543;SHT31;56762;49.494;11.768;2022-09-01T06:54:16;16.26;74.22
69543;SHT31;56762;49.494;11.768;2022-09-01T06:56:47;16.26;75.54
69543;SHT31;56762;49.494;11.768;2022-09-01T06:59:18;16.27;75.19
69543;SHT31;56762;49.494;11.768;2022-09-01T07:01:46;16.31;75.50
69543;SHT31;56762;49.494;11.768;2022-09-01T07:04:18;16.34;75.34
69543;SHT31;56762;49.494;11.768;2022-09-01T07:06:46;16.53;73.70
69543;SHT31;56762;49.494;11.768;2022-09-01T07:09:27;16.56;73.06
69543;SHT31;56762;49.494;11.768;2022-09-01T07:12:15;16.53;73.79
69543;SHT31;56762;49.494;11.768;2022-09-01T07:14:53;16.53;74.19
69543;SHT31;56762;49.494;11.768;2022-09-01T07:17:42;16.56;74.86
69543;SHT31;56762;49.494;11.768;2022-09-01T07:20:11;16.65;74.43
69543;SHT31;56762;49.494;11.768;2022-09-01T07:22:50;16.67;73.80
69543;SHT31;56762;49.494;11.768;2022-09-01T07:25:38;16.75;72.38
69543;SHT31;56762;49.494;11.768;2022-09-01T07:28:27;16.72;73.31
69543;SHT31;56762;49.494;11.768;2022-09-01T07:31:06;16.77;73.85
69543;SHT31;56762;49.494;11.768;2022-09-01T07:33:57;16.84;72.84
69543;SHT31;56762;49.494;11.768;2022-09-01T07:36:45;16.87;72.96
69543;SHT31;56762;49.494;11.768;2022-09-01T07:39:33;16.81;72.63
69543;SHT31;56762;49.494;11.768;2022-09-01T07:42:18;16.85;73.04
69543;SHT31;56762;49.494;11.768;2022-09-01T07:45:08;16.88;72.65
69543;SHT31;56762;49.494;11.768;2022-09-01T07:47:54;16.88;72.99
69543;SHT31;56762;49.494;11.768;2022-09-01T07:50:29;16.95;73.37
69543;SHT31;56762;49.494;11.768;2022-09-01T07:53:19;17.04;74.17
69543;SHT31;56762;49.494;11.768;2022-09-01T07:55:48;17.07;72.90
69543;SHT31;56762;49.494;11.768;2022-09-01T07:58:20;17.08;72.25
69543;SHT31;56762;49.494;11.768;2022-09-01T08:00:49;17.16;71.94
69543;SHT31;56762;49.494;11.768;2022-09-01T08:03:19;17.16;71.78
69543;SHT31;56762;49.494;11.768;2022-09-01T08:05:48;17.18;71.72
69543;SHT31;56762;49.494;11.768;2022-09-01T08:08:20;17.25;73.14
69543;SHT31;56762;49.494;11.768;2022-09-01T08:10:54;17.30;73.39
69543;SHT31;56762;49.494;11.768;2022-09-01T08:13:32;17.38;71.71
69543;SHT31;56762;49.494;11.768;2022-09-01T08:16:08;17.45;71.84
69543;SHT31;56762;49.494;11.768;2022-09-01T08:18:45;17.47;71.45
69543;SHT31;56762;49.494;11.768;2022-09-01T08:21:15;17.50;71.31
69543;SHT31;56762;49.494;11.768;2022-09-01T08:23:43;17.50;71.26
69543;SHT31;56762;49.494;11.768;2022-09-01T08:26:15;17.57;70.87
69543;SHT31;56762;49.494;11.768;2022-09-01T08:28:45;17.69;69.00
69543;SHT31;56762;49.494;11.768;2022-09-01T08:31:22;17.59;69.77
69543;SHT31;56762;49.494;11.768;2022-09-01T08:33:50;17.63;69.68
69543;SHT31;56762;49.494;11.768;2022-09-01T08:36:19;17.67;69.33
69543;SHT31;56762;49.494;11.768;2022-09-01T08:38:51;17.74;68.75
69543;SHT31;56762;49.494;11.768;2022-09-01T08:41:26;17.84;69.95
69543;SHT31;56762;49.494;11.768;2022-09-01T08:44:07;17.94;69.65
69543;SHT31;56762;49.494;11.768;2022-09-01T08:46:41;18.02;69.63
69543;SHT31;56762;49.494;11.768;2022-09-01T08:49:13;18.11;69.31
69543;SHT31;56762;49.494;11.768;2022-09-01T08:51:56;18.22;68.92
69543;SHT31;56762;49.494;11.768;2022-09-01T08:54:31;18.35;67.93
69543;SHT31;56762;49.494;11.768;2022-09-01T08:57:05;18.41;67.44
69543;SHT31;56762;49.494;11.768;2022-09-01T08:59:34;18.42;66.51
69543;SHT31;56762;49.494;11.768;2022-09-01T09:02:14;18.45;66.60
69543;SHT31;56762;49.494;11.768;2022-09-01T09:04:58;18.47;67.06
69543;SHT31;56762;49.494;11.768;2022-09-01T09:07:53;18.42;66.91
69543;SHT31;56762;49.494;11.768;2022-09-01T09:10:37;18.51;67.28
69543;SHT31;56762;49.494;11.768;2022-09-01T09:13:13;18.42;66.32
69543;SHT31;56762;49.494;11.768;2022-09-01T09:15:51;18.44;65.56
69543;SHT31;56762;49.494;11.768;2022-09-01T09:18:39;18.41;67.39
69543;SHT31;56762;49.494;11.768;2022-09-01T09:21:26;18.42;67.91
69543;SHT31;56762;49.494;11.768;2022-09-01T09:23:59;18.48;67.21
69543;SHT31;56762;49.494;11.768;2022-09-01T09:26:29;18.58;67.82
69543;SHT31;56762;49.494;11.768;2022-09-01T09:29:07;18.66;67.52
69543;SHT31;56762;49.494;11.768;2022-09-01T09:31:38;18.69;66.18
69543;SHT31;56762;49.494;11.768;2022-09-01T09:34:17;18.75;66.56
69543;SHT31;56762;49.494;11.768;2022-09-01T09:36:45;18.76;66.87
69543;SHT31;56762;49.494;11.768;2022-09-01T09:39:21;18.82;66.45
69543;SHT31;56762;49.494;11.768;2022-09-01T09:42:03;18.82;66.22
69543;SHT31;56762;49.494;11.768;2022-09-01T09:44:40;18.83;65.80
69543;SHT31;56762;49.494;11.768;2022-09-01T09:47:35;18.79;65.93
69543;SHT31;56762;49.494;11.768;2022-09-01T09:50:13;18.83;66.67
69543;SHT31;56762;49.494;11.768;2022-09-01T09:52:46;18.80;65.33
69543;SHT31;56762;49.494;11.768;2022-09-01T09:55:21;18.79;65.56
69543;SHT31;56762;49.494;11.768;2022-09-01T09:57:52;18.77;65.84
69543;SHT31;56762;49.494;11.768;2022-09-01T10:00:22;18.77;66.14
69543;SHT31;56762;49.494;11.768;2022-09-01T10:02:55;18.73;66.00
69543;SHT31;56762;49.494;11.768;2022-09-01T10:05:34;18.69;67.42
69543;SHT31;56762;49.494;11.768;2022-09-01T10:08:05;18.63;67.34
69543;SHT31;56762;49.494;11.768;2022-09-01T10:10:38;18.60;67.15
69543;SHT31;56762;49.494;11.768;2022-09-01T10:13:09;18.55;68.33
69543;SHT31;56762;49.494;11.768;2022-09-01T10:15:40;18.55;67.03
69543;SHT31;56762;49.494;11.768;2022-09-01T10:18:15;18.51;67.05
69543;SHT31;56762;49.494;11.768;2022-09-01T10:20:57;18.44;68.29
69543;SHT31;56762;49.494;11.768;2022-09-01T10:23:28;18.41;67.14
69543;SHT31;56762;49.494;11.768;2022-09-01T10:26:01;18.42;67.66
69543;SHT31;56762;49.494;11.768;2022-09-01T10:28:32;18.42;67.92
69543;SHT31;56762;49.494;11.768;2022-09-01T10:31:02;18.47;68.40
69543;SHT31;56762;49.494;11.768;2022-09-01T10:33:35;18.53;68.31
69543;SHT31;56762;49.494;11.768;2022-09-01T10:36:05;18.60;66.82
69543;SHT31;56762;49.494;11.768;2022-09-01T10:38:33;18.72;67.11
69543;SHT31;56762;49.494;11.768;2022-09-01T10:41:01;18.75;66.59
69543;SHT31;56762;49.494;11.768;2022-09-01T10:43:41;18.88;67.17
69543;SHT31;56762;49.494;11.768;2022-09-01T10:52:55;19.19;64.99
69543;SHT31;56762;49.494;11.768;2022-09-01T10:55:31;19.20;65.47
69543;SHT31;56762;49.494;11.768;2022-09-01T10:58:28;19.26;64.50
69543;SHT31;56762;49.494;11.768;2022-09-01T11:05:12;19.47;64.13
69543;SHT31;56762;49.494;11.768;2022-09-01T11:07:40;19.50;64.34
69543;SHT31;56762;49.494;11.768;2022-09-01T11:10:35;19.51;62.93
69543;SHT31;56762;49.494;11.768;2022-09-01T11:13:32;19.50;61.73
69543;SHT31;56762;49.494;11.768;2022-09-01T11:16:30;19.48;62.03
69543;SHT31;56762;49.494;11.768;2022-09-01T11:19:31;19.46;62.73
69543;SHT31;56762;49.494;11.768;2022-09-01T11:22:15;19.46;62.81
69543;SHT31;56762;49.494;11.768;2022-09-01T11:24:50;19.46;62.30
69543;SHT31;56762;49.494;11.768;2022-09-01T11:27:56;19.50;62.54
69543;SHT31;56762;49.494;11.768;2022-09-01T11:30:34;19.47;62.80
69543;SHT31;56762;49.494;11.768;2022-09-01T11:33:11;19.46;61.31
69543;SHT31;56762;49.494;11.768;2022-09-01T11:35:44;19.37;61.20
69543;SHT31;56762;49.494;11.768;2022-09-01T11:38:14;19.40;62.77
69543;SHT31;56762;49.494;11.768;2022-09-01T11:40:42;19.43;61.22
69543;SHT31;56762;49.494;11.768;2022-09-01T11:43:23;19.50;60.34
69543;SHT31;56762;49.494;11.768;2022-09-01T11:45:58;19.51;61.46
69543;SHT31;56762;49.494;11.768;2022-09-01T11:48:28;19.55;59.95
69543;SHT31;56762;49.494;11.768;2022-09-01T11:50:58;19.58;60.82
69543;SHT31;56762;49.494;11.768;2022-09-01T11:53:27;19.61;60.48
69543;SHT31;56762;49.494;11.768;2022-09-01T11:56:12;19.67;60.06
69543;SHT31;56762;49.494;11.768;2022-09-01T11:58:42;19.67;60.78
69543;SHT31;56762;49.494;11.768;2022-09-01T12:01:14;19.69;61.00
69543;SHT31;56762;49.494;11.768;2022-09-01T12:03:43;19.79;60.86
69543;SHT31;56762;49.494;11.768;2022-09-01T12:06:18;19.85;60.08
69543;SHT31;56762;49.494;11.768;2022-09-01T12:08:53;19.96;57.68
69543;SHT31;56762;49.494;11.768;2022-09-01T12:11:24;20.06;57.47
69543;SHT31;56762;49.494;11.768;2022-09-01T12:13:59;20.15;54.94
69543;SHT31;56762;49.494;11.768;2022-09-01T12:16:31;20.13;56.01
69543;SHT31;56762;49.494;11.768;2022-09-01T12:19:04;20.09;56.96
69543;SHT31;56762;49.494;11.768;2022-09-01T12:21:35;20.05;57.74
69543;SHT31;56762;49.494;11.768;2022-09-01T12:24:13;20.04;56.26
69543;SHT31;56762;49.494;11.768;2022-09-01T12:26:42;19.96;55.53
69543;SHT31;56762;49.494;11.768;2022-09-01T12:29:13;19.91;54.29
69543;SHT31;56762;49.494;11.768;2022-09-01T12:31:43;19.81;55.82
69543;SHT31;56762;49.494;11.768;2022-09-01T12:34:27;19.71;55.51
69543;SHT31;56762;49.494;11.768;2022-09-01T12:37:03;19.65;57.83
69543;SHT31;56762;49.494;11.768;2022-09-01T12:39:33;19.61;57.14
69543;SHT31;56762;49.494;11.768;2022-09-01T12:42:07;19.60;56.86
69543;SHT31;56762;49.494;11.768;2022-09-01T12:44:46;19.53;57.80
69543;SHT31;56762;49.494;11.768;2022-09-01T12:47:45;19.47;57.82
69543;SHT31;56762;49.494;11.768;2022-09-01T12:50:41;19.54;56.17
69543;SHT31;56762;49.494;11.768;2022-09-01T12:53:16;19.50;56.55
69543;SHT31;56762;49.494;11.768;2022-09-01T12:56:04;19.51;57.34
69543;SHT31;56762;49.494;11.768;2022-09-01T12:58:32;19.54;56.43
69543;SHT31;56762;49.494;11.768;2022-09-01T13:01:03;19.62;56.99
69543;SHT31;56762;49.494;11.768;2022-09-01T13:04:05;19.78;56.09
69543;SHT31;56762;49.494;11.768;2022-09-01T13:06:33;19.78;55.94
69543;SHT31;56762;49.494;11.768;2022-09-01T13:09:01;19.71;55.33
69543;SHT31;56762;49.494;11.768;2022-09-01T13:11:29;19.79;54.99
69543;SHT31;56762;49.494;11.768;2022-09-01T13:14:17;19.78;54.35
69543;SHT31;56762;49.494;11.768;2022-09-01T13:16:46;19.83;54.43
69543;SHT31;56762;49.494;11.768;2022-09-01T13:19:14;19.83;54.75
69543;SHT31;56762;49.494;11.768;2022-09-01T13:21:53;19.85;54.33
69543;SHT31;56762;49.494;11.768;2022-09-01T13:24:21;19.88;54.59
69543;SHT31;56762;49.494;11.768;2022-09-01T13:26:54;19.89;53.96
69543;SHT31;56762;49.494;11.768;2022-09-01T13:29:42;19.91;53.94
69543;SHT31;56762;49.494;11.768;2022-09-01T13:32:12;19.86;54.69
69543;SHT31;56762;49.494;11.768;2022-09-01T13:34:45;19.89;54.34
69543;SHT31;56762;49.494;11.768;2022-09-01T13:37:16;19.92;54.98
69543;SHT31;56762;49.494;11.768;2022-09-01T13:39:43;19.92;53.99
69543;SHT31;56762;49.494;11.768;2022-09-01T13:42:12;19.91;54.20
69543;SHT31;56762;49.494;11.768;2022-09-01T13:44:41;19.86;56.86
69543;SHT31;56762;49.494;11.768;2022-09-01T13:47:10;19.85;56.51
69543;SHT31;56762;49.494;11.768;2022-09-01T13:49:59;19.82;57.34
69543;SHT31;56762;49.494;11.768;2022-09-01T13:52:34;19.79;56.26
69543;SHT31;56762;49.494;11.768;2022-09-01T13:55:03;19.77;56.81
69543;SHT31;56762;49.494;11.768;2022-09-01T13:57:30;19.74;56.32
69543;SHT31;56762;49.494;11.768;2022-09-01T14:00:04;19.72;56.05
69543;SHT31;56762;49.494;11.768;2022-09-01T14:02:32;19.71;54.90
69543;SHT31;56762;49.494;11.768;2022-09-01T14:05:02;19.77;54.12
69543;SHT31;56762;49.494;11.768;2022-09-01T14:07:30;19.78;54.66
69543;SHT31;56762;49.494;11.768;2022-09-01T14:09:58;19.81;52.19
69543;SHT31;56762;49.494;11.768;2022-09-01T14:12:26;19.86;51.95
69543;SHT31;56762;49.494;11.768;2022-09-01T14:14:56;19.88;53.28
69543;SHT31;56762;49.494;11.768;2022-09-01T14:17:44;19.82;52.42
69543;SHT31;56762;49.494;11.768;2022-09-01T14:20:15;19.88;52.55
69543;SHT31;56762;49.494;11.768;2022-09-01T14:22:44;19.82;52.00
69543;SHT31;56762;49.494;11.768;2022-09-01T14:25:12;19.82;53.53
69543;SHT31;56762;49.494;11.768;2022-09-01T14:27:40;19.81;52.87
69543;SHT31;56762;49.494;11.768;2022-09-01T14:30:14;19.82;53.57
69543;SHT31;56762;49.494;11.768;2022-09-01T14:32:42;19.83;53.54
69543;SHT31;56762;49.494;11.768;2022-09-01T14:35:10;19.85;52.18
69543;SHT31;56762;49.494;11.768;2022-09-01T14:37:40;19.92;52.24
69543;SHT31;56762;49.494;11.768;2022-09-01T14:40:11;19.92;53.21
69543;SHT31;56762;49.494;11.768;2022-09-01T14:42:43;19.91;53.83
69543;SHT31;56762;49.494;11.768;2022-09-01T14:45:13;19.95;52.81
69543;SHT31;56762;49.494;11.768;2022-09-01T14:47:44;19.98;54.16
69543;SHT31;56762;49.494;11.768;2022-09-01T14:50:13;20.05;54.07
69543;SHT31;56762;49.494;11.768;2022-09-01T14:52:51;20.05;52.27
69543;SHT31;56762;49.494;11.768;2022-09-01T14:55:20;20.05;51.93
69543;SHT31;56762;49.494;11.768;2022-09-01T14:57:48;20.04;52.70
69543;SHT31;56762;49.494;11.768;2022-09-01T15:00:17;20.19;48.82
69543;SHT31;56762;49.494;11.768;2022-09-01T15:02:45;20.12;50.72
69543;SHT31;56762;49.494;11.768;2022-09-01T15:05:14;20.09;49.52
69543;SHT31;56762;49.494;11.768;2022-09-01T15:07:42;20.06;49.98
69543;SHT31;56762;49.494;11.768;2022-09-01T15:10:14;20.12;49.21
69543;SHT31;56762;49.494;11.768;2022-09-01T15:12:52;20.12;50.27
69543;SHT31;56762;49.494;11.768;2022-09-01T15:15:20;20.10;48.86
69543;SHT31;56762;49.494;11.768;2022-09-01T15:17:49;20.12;49.03
69543;SHT31;56762;49.494;11.768;2022-09-01T15:20:16;20.12;48.60
69543;SHT31;56762;49.494;11.768;2022-09-01T15:23:02;20.09;48.03
69543;SHT31;56762;49.494;11.768;2022-09-01T15:25:32;20.00;48.52
69543;SHT31;56762;49.494;11.768;2022-09-01T15:28:00;20.02;48.27
69543;SHT31;56762;49.494;11.768;2022-09-01T15:30:28;19.95;49.80
69543;SHT31;56762;49.494;11.768;2022-09-01T15:32:56;19.96;49.06
69543;SHT31;56762;49.494;11.768;2022-09-01T15:35:28;19.95;48.10
69543;SHT31;56762;49.494;11.768;2022-09-01T15:37:56;19.82;48.53
69543;SHT31;56762;49.494;11.768;2022-09-01T15:40:25;19.79;48.74
69543;SHT31;56762;49.494;11.768;2022-09-01T15:42:55;19.74;49.30
69543;SHT31;56762;49.494;11.768;2022-09-01T15:45:26;19.68;48.33
69543;SHT31;56762;49.494;11.768;2022-09-01T15:47:55;19.67;49.00
69543;SHT31;56762;49.494;11.768;2022-09-01T15:50:24;19.61;49.51
69543;SHT31;56762;49.494;11.768;2022-09-01T15:52:55;19.55;50.31
69543;SHT31;56762;49.494;11.768;2022-09-01T15:55:26;19.47;52.30
69543;SHT31;56762;49.494;11.768;2022-09-01T15:57:56;19.41;52.02
69543;SHT31;56762;49.494;11.768;2022-09-01T16:00:25;19.34;51.89
69543;SHT31;56762;49.494;11.768;2022-09-01T16:02:53;19.27;52.57
69543;SHT31;56762;49.494;11.768;2022-09-01T16:05:22;19.23;51.90
69543;SHT31;56762;49.494;11.768;2022-09-01T16:07:52;19.19;53.28
69543;SHT31;56762;49.494;11.768;2022-09-01T16:10:24;19.16;52.97